createdAt,value
2018-05-11T00:01:41.026Z,16.03
2018-05-11T00:04:08.538Z,16.01
2018-05-11T00:06:36.043Z,15.84
2018-05-11T00:09:03.553Z,15.70
2018-05-11T00:11:31.047Z,15.70
2018-05-11T00:13:58.564Z,15.71
2018-05-11T00:16:26.096Z,15.70
2018-05-11T00:18:53.677Z,15.83
2018-05-11T00:21:21.180Z,15.83
2018-05-11T00:23:48.674Z,16.05
2018-05-11T00:26:16.191Z,15.94
2018-05-11T00:28:43.722Z,15.96
2018-05-11T00:31:11.258Z,15.78
2018-05-11T00:33:38.755Z,15.79
2018-05-11T00:36:06.295Z,15.68
2018-05-11T00:38:33.810Z,15.75
2018-05-11T00:41:01.352Z,15.63
2018-05-11T00:43:28.851Z,15.68
2018-05-11T00:45:56.439Z,15.56
2018-05-11T00:48:23.956Z,15.58
2018-05-11T00:50:51.466Z,15.70
2018-05-11T00:53:19.013Z,15.64
2018-05-11T00:55:49.474Z,15.57
2018-05-11T00:58:17.038Z,15.51
2018-05-11T01:00:44.578Z,15.43
2018-05-11T01:03:12.088Z,15.49
2018-05-11T01:05:39.582Z,15.49
2018-05-11T01:08:07.084Z,15.43
2018-05-11T01:10:34.599Z,15.33
2018-05-11T01:13:02.107Z,15.33
2018-05-11T01:15:29.613Z,15.59
2018-05-11T01:17:57.107Z,15.64
2018-05-11T01:20:24.643Z,15.77
2018-05-11T01:22:52.201Z,15.90
2018-05-11T01:25:19.750Z,15.72
2018-05-11T01:27:47.284Z,15.90
2018-05-11T01:30:14.823Z,15.91
2018-05-11T01:32:42.324Z,15.97
2018-05-11T01:35:09.864Z,15.89
2018-05-11T01:37:37.407Z,15.93
2018-05-11T01:40:04.912Z,15.96
2018-05-11T01:42:32.466Z,16.08
2018-05-11T01:44:59.965Z,16.22
2018-05-11T01:47:27.470Z,16.36
2018-05-11T01:49:54.967Z,16.35
2018-05-11T01:52:22.507Z,16.42
2018-05-11T01:54:50.008Z,16.32
2018-05-11T01:57:17.552Z,16.39
2018-05-11T01:59:45.051Z,16.32
2018-05-11T02:02:12.555Z,16.33
2018-05-11T02:04:40.092Z,16.41
2018-05-11T02:07:07.603Z,16.46
2018-05-11T02:09:35.139Z,16.40
2018-05-11T02:12:02.635Z,16.27
2018-05-11T02:14:30.194Z,16.22
2018-05-11T02:16:57.740Z,16.12
2018-05-11T02:19:25.236Z,16.24
2018-05-11T02:21:52.731Z,16.37
2018-05-11T02:24:20.237Z,16.47
2018-05-11T02:26:47.775Z,16.26
2018-05-11T02:29:15.280Z,16.50
2018-05-11T02:31:42.789Z,16.58
2018-05-11T02:34:10.362Z,16.61
2018-05-11T02:36:37.861Z,16.58
2018-05-11T02:39:05.378Z,16.33
2018-05-11T02:41:32.885Z,16.30
2018-05-11T02:44:00.440Z,16.42
2018-05-11T02:46:27.949Z,16.42
2018-05-11T02:48:55.451Z,16.22
2018-05-11T02:51:22.951Z,16.13
2018-05-11T02:53:50.465Z,16.11
2018-05-11T02:56:17.969Z,16.05
2018-05-11T02:58:45.479Z,16.03
2018-05-11T03:01:12.983Z,15.99
2018-05-11T03:03:40.488Z,16.15
2018-05-11T03:06:08.000Z,16.25
2018-05-11T03:08:35.519Z,16.19
2018-05-11T03:11:03.026Z,16.15
2018-05-11T03:13:30.535Z,16.21
2018-05-11T03:15:58.051Z,16.31
2018-05-11T03:18:25.651Z,16.30
2018-05-11T03:20:53.127Z,16.14
2018-05-11T03:23:20.628Z,16.27
2018-05-11T03:25:48.130Z,16.29
2018-05-11T03:28:15.687Z,16.05
2018-05-11T03:30:43.220Z,16.16
2018-05-11T03:33:10.722Z,16.35
2018-05-11T03:35:38.274Z,16.47
2018-05-11T03:38:05.778Z,16.12
2018-05-11T03:40:33.287Z,16.07
2018-05-11T03:43:00.796Z,16.01
2018-05-11T03:45:28.298Z,16.06
2018-05-11T03:47:55.908Z,16.11
2018-05-11T03:50:23.362Z,16.21
2018-05-11T03:52:50.872Z,16.16
2018-05-11T03:55:18.389Z,16.16
2018-05-11T03:57:45.890Z,16.20
2018-05-11T04:00:13.442Z,16.35
2018-05-11T04:02:52.775Z,16.28
2018-05-11T04:05:32.161Z,16.37
2018-05-11T04:08:12.820Z,16.37
2018-05-11T04:10:40.319Z,16.31
2018-05-11T04:13:07.866Z,16.33
2018-05-11T04:15:35.339Z,16.41
2018-05-11T04:18:02.900Z,16.45
2018-05-11T04:20:31.185Z,16.53
2018-05-11T04:24:52.023Z,16.41
2018-05-11T04:27:19.525Z,16.20
2018-05-11T04:29:47.040Z,16.19
2018-05-11T04:32:14.555Z,16.15
2018-05-11T04:34:42.055Z,16.23
2018-05-11T04:37:09.652Z,16.46
2018-05-11T04:39:37.091Z,16.63
2018-05-11T04:42:04.591Z,16.76
2018-05-11T04:44:32.143Z,16.68
2018-05-11T04:46:59.659Z,16.78
2018-05-11T04:49:27.172Z,16.79
2018-05-11T04:51:54.715Z,16.83
2018-05-11T04:54:22.231Z,16.98
2018-05-11T04:56:49.739Z,17.15
2018-05-11T04:59:17.250Z,17.00
2018-05-11T05:01:44.810Z,16.91
2018-05-11T05:04:12.344Z,17.13
2018-05-11T05:06:39.885Z,17.26
2018-05-11T05:09:07.390Z,17.16
2018-05-11T05:11:34.897Z,17.12
2018-05-11T05:14:02.412Z,17.25
2018-05-11T05:16:30.082Z,17.35
2018-05-11T05:18:57.591Z,17.28
2018-05-11T05:21:25.153Z,17.63
2018-05-11T05:23:52.659Z,18.00
2018-05-11T05:26:21.141Z,17.57
2018-05-11T05:28:48.658Z,17.42
2018-05-11T05:31:16.238Z,17.24
2018-05-11T05:33:43.735Z,17.34
2018-05-11T05:36:11.337Z,17.45
2018-05-11T05:38:39.087Z,17.75
2018-05-11T05:41:06.613Z,18.12
2018-05-11T05:43:34.168Z,18.37
2018-05-11T05:46:01.678Z,18.31
2018-05-11T05:48:29.253Z,18.44
2018-05-11T05:50:56.767Z,18.17
2018-05-11T05:53:24.291Z,17.69
2018-05-11T05:55:51.830Z,17.69
2018-05-11T05:58:19.357Z,17.81
2018-05-11T06:00:46.878Z,17.97
2018-05-11T06:03:14.372Z,18.14
2018-05-11T06:05:41.917Z,18.07
2018-05-11T06:08:09.488Z,18.21
2018-05-11T06:10:36.999Z,18.06
2018-05-11T06:13:04.496Z,18.04
2018-05-11T06:15:32.013Z,18.02
2018-05-11T06:17:59.536Z,17.86
2018-05-11T06:20:27.115Z,17.86
2018-05-11T06:22:54.627Z,17.99
2018-05-11T06:25:22.151Z,17.86
2018-05-11T06:27:49.663Z,18.04
2018-05-11T06:30:17.215Z,18.22
2018-05-11T06:32:44.724Z,18.17
2018-05-11T06:35:12.261Z,18.32
2018-05-11T06:37:39.771Z,18.51
2018-05-11T06:40:07.365Z,18.77
2018-05-11T06:42:34.872Z,19.28
2018-05-11T06:45:02.380Z,19.28
2018-05-11T06:47:29.915Z,18.84
2018-05-11T06:49:57.419Z,18.34
2018-05-11T06:52:24.931Z,18.53
2018-05-11T06:54:52.486Z,18.15
2018-05-11T06:57:19.988Z,18.15
2018-05-11T06:59:47.496Z,18.28
2018-05-11T07:02:15.033Z,17.97
2018-05-11T07:04:42.535Z,18.22
2018-05-11T07:07:10.063Z,18.21
2018-05-11T07:09:37.564Z,18.14
2018-05-11T07:12:05.398Z,18.26
2018-05-11T07:14:32.921Z,18.15
2018-05-11T07:17:00.585Z,18.14
2018-05-11T07:19:28.179Z,18.24
2018-05-11T07:21:55.678Z,18.62
2018-05-11T07:24:23.170Z,18.43
2018-05-11T07:26:50.671Z,18.61
2018-05-11T07:29:18.281Z,18.48
2018-05-11T07:31:45.796Z,18.81
2018-05-11T07:34:13.296Z,18.79
2018-05-11T07:36:40.790Z,19.12
2018-05-11T07:39:08.452Z,19.44
2018-05-11T07:41:35.974Z,19.92
2018-05-11T07:44:03.536Z,19.55
2018-05-11T07:46:31.050Z,19.33
2018-05-11T07:48:58.585Z,19.57
2018-05-11T07:51:26.088Z,20.00
2018-05-11T07:53:53.593Z,20.29
2018-05-11T07:56:21.101Z,20.36
2018-05-11T07:58:48.749Z,20.36
2018-05-11T08:01:16.250Z,20.25
2018-05-11T08:03:43.753Z,20.37
2018-05-11T08:06:11.250Z,19.89
2018-05-11T08:08:38.762Z,19.85
2018-05-11T08:11:06.275Z,19.24
2018-05-11T08:13:33.774Z,19.62
2018-05-11T08:16:01.275Z,19.69
2018-05-11T08:18:28.775Z,20.70
2018-05-11T08:20:56.333Z,21.50
2018-05-11T08:23:23.831Z,23.11
2018-05-11T08:25:51.346Z,22.18
2018-05-11T08:28:18.846Z,21.89
2018-05-11T08:30:46.365Z,23.08
2018-05-11T08:33:13.883Z,24.47
2018-05-11T08:35:41.417Z,25.48
2018-05-11T08:38:08.917Z,25.42
2018-05-11T08:40:36.452Z,25.64
2018-05-11T08:43:03.973Z,26.07
2018-05-11T08:45:31.488Z,26.94
2018-05-11T08:47:59.039Z,26.37
2018-05-11T08:50:26.516Z,24.85
2018-05-11T08:52:54.024Z,24.09
2018-05-11T08:55:21.531Z,25.22
2018-05-11T08:57:49.129Z,26.26
2018-05-11T09:00:18.082Z,25.68
2018-05-11T09:02:45.606Z,25.01
2018-05-11T09:05:13.128Z,24.44
2018-05-11T09:07:40.643Z,24.22
2018-05-11T09:10:08.170Z,23.86
2018-05-11T09:12:35.711Z,23.75
2018-05-11T09:15:03.299Z,23.96
2018-05-11T09:17:30.835Z,23.02
2018-05-11T09:19:58.489Z,22.57
2018-05-11T09:22:25.995Z,22.69
2018-05-11T09:24:53.509Z,22.56
2018-05-11T09:27:21.031Z,21.83
2018-05-11T09:29:48.527Z,22.23
2018-05-11T09:32:16.044Z,22.04
2018-05-11T09:34:43.551Z,22.01
2018-05-11T09:37:11.185Z,22.31
2018-05-11T09:39:38.738Z,22.21
2018-05-11T09:42:06.224Z,22.59
2018-05-11T09:44:33.731Z,22.88
2018-05-11T09:47:01.648Z,22.75
2018-05-11T09:49:29.174Z,24.19
2018-05-11T09:51:56.679Z,22.93
2018-05-11T09:54:24.189Z,23.28
2018-05-11T09:56:51.699Z,24.64
2018-05-11T09:59:19.216Z,26.11
2018-05-11T10:01:46.769Z,26.26
2018-05-11T10:04:14.291Z,28.03
2018-05-11T10:06:41.819Z,28.75
2018-05-11T10:09:09.332Z,26.07
2018-05-11T10:11:36.855Z,23.87
2018-05-11T10:14:04.368Z,23.91
2018-05-11T10:16:31.919Z,25.05
2018-05-11T10:18:59.432Z,24.72
2018-05-11T10:21:26.975Z,26.16
2018-05-11T10:23:54.488Z,27.65
2018-05-11T10:26:21.996Z,27.78
2018-05-11T10:28:49.565Z,26.03
2018-05-11T10:31:17.105Z,25.04
2018-05-11T10:33:44.640Z,23.94
2018-05-11T10:36:12.162Z,23.43
2018-05-11T10:38:39.660Z,23.86
2018-05-11T10:41:07.520Z,25.04
2018-05-11T10:43:35.029Z,26.86
2018-05-11T10:46:02.572Z,27.88
2018-05-11T10:48:30.134Z,29.48
2018-05-11T10:50:57.642Z,30.02
2018-05-11T10:53:25.146Z,27.96
2018-05-11T10:55:52.665Z,27.94
2018-05-11T10:58:20.850Z,26.55
2018-05-11T11:00:48.365Z,26.66
2018-05-11T11:03:15.931Z,26.61
2018-05-11T11:05:43.440Z,25.32
2018-05-11T11:08:10.940Z,24.40
2018-05-11T11:10:38.476Z,25.69
2018-05-11T11:13:05.973Z,28.15
2018-05-11T11:15:33.571Z,28.91
2018-05-11T11:18:01.121Z,28.48
2018-05-11T11:20:28.619Z,29.95
2018-05-11T11:22:56.124Z,29.45
2018-05-11T11:25:23.640Z,29.11
2018-05-11T11:27:51.252Z,29.27
2018-05-11T11:30:18.743Z,28.57
2018-05-11T11:32:46.255Z,29.02
2018-05-11T11:35:13.807Z,29.32
2018-05-11T11:37:41.328Z,29.40
2018-05-11T11:40:08.831Z,29.40
2018-05-11T11:42:36.520Z,28.73
2018-05-11T11:45:04.011Z,28.60
2018-05-11T11:47:31.538Z,29.14
2018-05-11T11:49:59.100Z,29.27
2018-05-11T11:52:26.600Z,29.56
2018-05-11T11:54:54.100Z,29.57
2018-05-11T11:57:21.609Z,28.09
2018-05-11T11:59:49.126Z,26.48
2018-05-11T12:02:16.627Z,24.69
2018-05-11T12:04:44.151Z,24.20
2018-05-11T12:07:11.743Z,23.56
2018-05-11T12:09:39.261Z,22.77
2018-05-11T12:12:06.819Z,22.30
2018-05-11T12:14:34.575Z,21.98
2018-05-11T12:17:02.087Z,21.72
2018-05-11T12:19:29.683Z,21.02
2018-05-11T12:21:57.209Z,20.94
2018-05-11T12:24:24.732Z,20.68
2018-05-11T12:26:52.363Z,19.54
2018-05-11T12:29:19.869Z,19.10
2018-05-11T12:31:47.439Z,18.83
2018-05-11T12:34:14.937Z,18.98
2018-05-11T12:36:42.440Z,18.84
2018-05-11T12:39:10.085Z,18.81
2018-05-11T12:41:37.590Z,18.73
2018-05-11T12:44:05.123Z,18.57
2018-05-11T12:46:32.662Z,17.94
2018-05-11T12:49:00.208Z,17.80
2018-05-11T12:51:28.028Z,17.76
2018-05-11T12:53:55.563Z,17.51
2018-05-11T12:56:23.101Z,17.42
2018-05-11T12:58:50.608Z,17.56
2018-05-11T13:01:18.095Z,17.81
2018-05-11T13:03:45.741Z,17.33
2018-05-11T13:06:14.052Z,17.17
2018-05-11T13:08:41.645Z,17.28
2018-05-11T13:11:09.191Z,17.35
2018-05-11T13:13:36.694Z,17.53
2018-05-11T13:16:04.221Z,17.51
2018-05-11T13:18:31.791Z,17.55
2018-05-11T13:20:59.336Z,17.21
2018-05-11T13:23:26.911Z,17.36
2018-05-11T13:25:54.426Z,17.48
2018-05-11T13:28:21.928Z,17.55
2018-05-11T13:30:49.499Z,17.87
2018-05-11T13:33:17.003Z,17.94
2018-05-11T13:35:44.569Z,17.98
2018-05-11T13:38:12.080Z,17.82
2018-05-11T13:40:39.725Z,18.05
2018-05-11T13:43:07.271Z,18.06
2018-05-11T13:45:34.864Z,17.95
2018-05-11T13:48:02.366Z,17.93
2018-05-11T13:50:29.868Z,18.02
2018-05-11T13:52:57.411Z,18.21
2018-05-11T13:55:24.919Z,18.10
2018-05-11T13:57:52.453Z,18.25
2018-05-11T14:00:19.963Z,18.62
2018-05-11T14:02:47.474Z,18.69
2018-05-11T14:05:14.985Z,18.69
2018-05-11T14:07:42.500Z,18.50
2018-05-11T14:10:10.045Z,18.64
2018-05-11T14:12:37.586Z,18.76
2018-05-11T14:15:05.164Z,18.79
2018-05-11T14:17:32.693Z,18.77
2018-05-11T14:20:00.206Z,18.89
2018-05-11T14:22:27.743Z,18.86
2018-05-11T14:24:55.259Z,18.63
2018-05-11T14:27:22.783Z,18.82
2018-05-11T14:29:50.300Z,18.96
2018-05-11T14:32:17.803Z,19.06
2018-05-11T14:34:45.321Z,19.11
2018-05-11T14:37:12.832Z,19.35
2018-05-11T14:39:40.343Z,19.40
2018-05-11T14:42:07.884Z,19.24
2018-05-11T14:44:35.387Z,19.38
2018-05-11T14:47:02.998Z,19.27
2018-05-11T14:49:30.545Z,19.16
2018-05-11T14:51:58.111Z,19.09
2018-05-11T14:54:25.635Z,19.42
2018-05-11T14:56:53.175Z,19.26
2018-05-11T14:59:20.687Z,19.10
2018-05-11T15:01:48.521Z,19.19
2018-05-11T15:04:16.191Z,19.23
2018-05-11T15:06:43.869Z,18.89
2018-05-11T15:09:11.444Z,18.79
2018-05-11T15:11:38.983Z,18.69
2018-05-11T15:14:06.505Z,18.87
2018-05-11T15:16:34.046Z,18.78
2018-05-11T15:19:01.784Z,18.99
2018-05-11T15:21:29.363Z,19.17
2018-05-11T15:23:56.984Z,19.20
2018-05-11T15:26:24.810Z,19.34
2018-05-11T15:28:52.556Z,19.31
2018-05-11T15:31:20.130Z,18.94
2018-05-11T15:33:47.817Z,18.77
2018-05-11T15:36:15.777Z,18.82
2018-05-11T15:38:43.349Z,18.86
2018-05-11T15:41:10.859Z,19.11
2018-05-11T15:43:38.388Z,19.15
2018-05-11T15:46:05.952Z,19.34
2018-05-11T15:48:33.451Z,19.43
2018-05-11T15:51:00.952Z,19.23
2018-05-11T15:53:28.514Z,19.17
2018-05-11T15:55:56.065Z,19.13
2018-05-11T15:58:23.622Z,19.00
2018-05-11T16:00:51.165Z,18.92
2018-05-11T16:03:18.689Z,18.78
2018-05-11T16:05:46.220Z,18.55
2018-05-11T16:08:13.740Z,18.56
2018-05-11T16:10:41.914Z,18.58
2018-05-11T16:13:09.420Z,18.73
2018-05-11T16:15:36.985Z,18.82
2018-05-11T16:18:04.500Z,18.90
2018-05-11T16:20:32.083Z,18.90
2018-05-11T16:22:59.596Z,18.92
2018-05-11T16:25:27.138Z,18.88
2018-05-11T16:27:54.703Z,18.67
2018-05-11T16:30:22.278Z,18.89
2018-05-11T16:32:49.795Z,19.01
2018-05-11T16:35:17.300Z,18.83
2018-05-11T16:37:44.838Z,19.05
2018-05-11T16:40:12.351Z,19.18
2018-05-11T16:42:39.905Z,19.25
2018-05-11T16:45:07.467Z,19.37
2018-05-11T16:47:34.975Z,19.31
2018-05-11T16:50:02.555Z,19.34
2018-05-11T16:52:30.130Z,19.38
2018-05-11T16:54:57.643Z,19.39
2018-05-11T16:57:25.145Z,19.46
2018-05-11T16:59:52.648Z,19.50
2018-05-11T17:02:20.152Z,19.46
2018-05-11T17:04:47.694Z,19.49
2018-05-11T17:07:15.511Z,19.55
2018-05-11T17:09:43.038Z,19.52
2018-05-11T17:12:10.806Z,19.48
2018-05-11T17:14:38.332Z,19.50
2018-05-11T17:17:05.895Z,19.26
2018-05-11T17:19:33.406Z,18.98
2018-05-11T17:22:00.932Z,18.78
2018-05-11T17:24:28.448Z,18.70
2018-05-11T17:26:56.007Z,18.79
2018-05-11T17:29:23.560Z,18.72
2018-05-11T17:31:51.088Z,18.59
2018-05-11T17:34:18.653Z,18.48
2018-05-11T17:36:47.356Z,18.26
2018-05-11T17:39:14.899Z,18.33
2018-05-11T17:41:42.414Z,18.19
2018-05-11T17:44:09.980Z,18.23
2018-05-11T17:46:37.853Z,18.18
2018-05-11T17:49:05.431Z,18.10
2018-05-11T17:51:32.955Z,17.87
2018-05-11T17:54:00.519Z,18.15
2018-05-11T17:56:28.091Z,18.20
2018-05-11T17:58:55.634Z,18.30
2018-05-11T18:01:23.240Z,18.21
2018-05-11T18:03:50.773Z,18.20
2018-05-11T18:06:18.606Z,18.13
2018-05-11T18:08:46.345Z,18.12
2018-05-11T18:11:13.897Z,18.12
2018-05-11T18:13:41.579Z,18.07
2018-05-11T18:16:09.100Z,18.13
2018-05-11T18:18:36.612Z,18.19
2018-05-11T18:21:04.797Z,18.18
2018-05-11T18:23:32.334Z,18.24
2018-05-11T18:25:59.870Z,18.23
2018-05-11T18:28:27.394Z,18.23
2018-05-11T18:30:55.282Z,18.19
2018-05-11T18:33:22.841Z,18.16
2018-05-11T18:35:50.419Z,18.13
2018-05-11T18:38:17.976Z,18.05
2018-05-11T18:40:45.600Z,17.96
2018-05-11T18:43:13.121Z,17.88
2018-05-11T18:45:40.668Z,17.94
2018-05-11T18:48:08.194Z,17.84
2018-05-11T18:50:35.776Z,17.91
2018-05-11T18:53:03.708Z,17.79
2018-05-11T18:55:31.366Z,17.64
2018-05-11T18:57:59.311Z,17.45
2018-05-11T19:00:27.164Z,17.36
2018-05-11T19:02:55.442Z,17.40
2018-05-11T19:05:23.020Z,17.43
2018-05-11T19:07:50.992Z,17.43
2018-05-11T19:10:18.552Z,17.43
2018-05-11T19:12:46.096Z,17.43
2018-05-11T19:15:13.653Z,17.54
2018-05-11T19:17:41.364Z,17.64
2018-05-11T19:20:10.805Z,17.70
2018-05-11T19:22:38.372Z,17.75
2018-05-11T19:25:06.493Z,17.77
2018-05-11T19:27:34.955Z,17.70
2018-05-11T19:30:04.055Z,17.75
2018-05-11T19:32:31.627Z,17.68
2018-05-11T19:35:00.032Z,17.57
2018-05-11T19:37:27.607Z,17.46
2018-05-11T19:39:56.112Z,17.39
2018-05-11T19:42:23.767Z,17.35
2018-05-11T19:44:52.292Z,17.32
2018-05-11T19:47:19.893Z,17.20
2018-05-11T19:49:47.440Z,17.32
2018-05-11T19:52:14.963Z,17.29
2018-05-11T19:54:42.547Z,17.31
2018-05-11T19:57:10.068Z,17.27
2018-05-11T19:59:38.204Z,17.22
2018-05-11T20:02:05.774Z,17.25
2018-05-11T20:04:33.280Z,17.16
2018-05-11T20:07:00.797Z,17.16
2018-05-11T20:09:28.306Z,16.97
2018-05-11T20:11:55.832Z,16.87
2018-05-11T20:14:24.070Z,16.90
2018-05-11T20:16:51.581Z,16.99
2018-05-11T20:19:19.208Z,16.86
2018-05-11T20:21:46.780Z,16.84
2018-05-11T20:24:14.293Z,16.79
2018-05-11T20:26:41.887Z,16.77
2018-05-11T20:29:09.451Z,16.84
2018-05-11T20:31:37.063Z,16.79
2018-05-11T20:34:04.577Z,16.65
2018-05-11T20:36:32.083Z,16.36
2018-05-11T20:38:59.898Z,16.31
2018-05-11T20:41:27.481Z,16.24
2018-05-11T20:43:54.956Z,16.19
2018-05-11T20:46:22.483Z,16.30
2018-05-11T20:48:50.001Z,16.36
2018-05-11T20:51:17.752Z,16.39
2018-05-11T20:53:45.344Z,16.39
2018-05-11T20:56:13.160Z,16.41
2018-05-11T20:58:40.678Z,16.47
2018-05-11T21:01:08.241Z,16.43
2018-05-11T21:03:35.999Z,16.37
2018-05-11T21:06:03.629Z,16.22
2018-05-11T21:08:31.139Z,16.15
2018-05-11T21:10:58.707Z,16.04
2018-05-11T21:13:26.216Z,15.95
2018-05-11T21:15:53.726Z,15.85
2018-05-11T21:18:21.231Z,15.96
2018-05-11T21:20:48.766Z,15.84
2018-05-11T21:23:16.275Z,15.75
2018-05-11T21:25:43.813Z,15.79
2018-05-11T21:28:11.328Z,15.65
2018-05-11T21:30:38.919Z,15.54
2018-05-11T21:33:06.424Z,15.42
2018-05-11T21:35:33.923Z,15.36
2018-05-11T21:38:01.524Z,15.36
2018-05-11T21:40:29.075Z,15.27
2018-05-11T21:42:56.808Z,15.32
2018-05-11T21:45:24.303Z,15.22
2018-05-11T21:47:51.815Z,15.33
2018-05-11T21:50:19.321Z,15.36
2018-05-11T21:52:46.840Z,15.37
2018-05-11T21:55:14.404Z,15.48
2018-05-11T21:57:41.951Z,15.41
2018-05-11T22:00:09.511Z,15.36
2018-05-11T22:02:37.027Z,15.35
2018-05-11T22:05:04.574Z,15.43
2018-05-11T22:07:32.131Z,15.49
2018-05-11T22:09:59.954Z,15.35
2018-05-11T22:12:27.458Z,15.36
2018-05-11T22:14:55.255Z,15.30
2018-05-11T22:17:22.770Z,15.44
2018-05-11T22:19:50.574Z,15.56
2018-05-11T22:22:18.115Z,15.58
2018-05-11T22:24:45.697Z,15.63
2018-05-11T22:27:13.149Z,15.66
2018-05-11T22:29:40.812Z,15.70
2018-05-11T22:32:08.328Z,15.57
2018-05-11T22:34:35.832Z,15.36
2018-05-11T22:37:03.331Z,15.35
2018-05-11T22:39:30.880Z,15.21
2018-05-11T22:41:58.386Z,15.06
2018-05-11T22:44:25.938Z,15.24
2018-05-11T22:46:53.434Z,15.53
2018-05-11T22:49:20.981Z,15.68
2018-05-11T22:51:48.494Z,15.77
2018-05-11T22:54:16.022Z,15.89
2018-05-11T22:56:43.533Z,15.85
2018-05-11T22:59:11.038Z,15.88
2018-05-11T23:01:38.547Z,15.91
2018-05-11T23:04:06.110Z,15.90
2018-05-11T23:06:33.603Z,15.85
2018-05-11T23:09:01.115Z,15.75
2018-05-11T23:11:28.612Z,15.82
2018-05-11T23:13:56.120Z,15.83
2018-05-11T23:16:23.620Z,15.88
2018-05-11T23:18:51.131Z,15.85
2018-05-11T23:21:18.639Z,15.73
2018-05-11T23:23:46.147Z,15.63
2018-05-11T23:26:13.672Z,15.69
2018-05-11T23:28:41.176Z,15.72
2018-05-11T23:31:08.678Z,15.68
2018-05-11T23:33:36.187Z,15.61
2018-05-11T23:36:03.706Z,15.43
2018-05-11T23:38:31.202Z,15.10
2018-05-11T23:40:58.713Z,14.86
2018-05-11T23:43:26.243Z,14.82
2018-05-11T23:45:53.767Z,14.51
2018-05-11T23:48:21.366Z,14.30
2018-05-11T23:50:48.911Z,14.29
2018-05-11T23:53:16.429Z,14.29
2018-05-11T23:55:43.964Z,14.17
2018-05-11T23:58:11.482Z,14.01
